createdAt,value
2024-04-19T00:00:11.049Z,51.29
2024-04-19T00:02:37.725Z,50.19
2024-04-19T00:05:04.851Z,50.72
2024-04-19T00:07:31.491Z,49.45
2024-04-19T00:09:58.231Z,49.90
2024-04-19T00:12:24.863Z,50.81
2024-04-19T00:14:51.483Z,50.64
2024-04-19T00:17:18.175Z,51.32
2024-04-19T00:19:46.564Z,51.33
2024-04-19T00:22:13.210Z,52.94
2024-04-19T00:24:39.831Z,52.39
2024-04-19T00:27:07.125Z,52.09
2024-04-19T00:29:33.742Z,52.26
2024-04-19T00:32:00.540Z,51.60
2024-04-19T00:34:27.199Z,52.89
2024-04-19T00:36:53.869Z,51.60
2024-04-19T00:39:20.527Z,52.93
2024-04-19T00:41:47.132Z,50.87
2024-04-19T00:44:13.723Z,53.37
2024-04-19T00:46:42.581Z,51.85
2024-04-19T00:49:09.666Z,53.24
2024-04-19T00:51:36.438Z,52.02
2024-04-19T00:54:03.111Z,52.13
2024-04-19T00:56:31.973Z,54.06
2024-04-19T00:58:58.747Z,52.76
2024-04-19T01:01:26.198Z,53.24
2024-04-19T01:03:53.310Z,54.03
2024-04-19T01:06:20.066Z,52.30
2024-04-19T01:08:46.987Z,52.41
2024-04-19T01:11:13.825Z,53.64
2024-04-19T01:13:40.513Z,53.67
2024-04-19T01:16:07.299Z,52.45
2024-04-19T01:18:34.012Z,53.09
2024-04-19T01:21:01.773Z,51.33
2024-04-19T01:23:28.920Z,52.46
2024-04-19T01:25:55.626Z,51.94
2024-04-19T01:28:22.174Z,51.62
2024-04-19T01:30:49.138Z,49.83
2024-04-19T01:33:15.892Z,50.60
2024-04-19T01:35:42.504Z,50.09
2024-04-19T01:38:09.066Z,51.33
2024-04-19T01:40:35.701Z,49.99
2024-04-19T01:43:02.357Z,49.81
2024-04-19T01:45:28.872Z,48.01
2024-04-19T01:47:56.519Z,50.69
2024-04-19T01:50:23.142Z,50.23
2024-04-19T01:52:49.630Z,49.69
2024-04-19T01:55:17.893Z,49.56
2024-04-19T01:57:44.922Z,51.00
2024-04-19T02:00:12.060Z,50.15
2024-04-19T02:02:38.578Z,50.24
2024-04-19T02:05:05.345Z,49.78
2024-04-19T02:07:31.825Z,49.95
2024-04-19T02:09:58.361Z,50.64
2024-04-19T02:12:24.934Z,50.50
2024-04-19T02:14:52.376Z,49.19
2024-04-19T02:17:18.887Z,48.64
2024-04-19T02:19:45.400Z,47.65
2024-04-19T02:22:11.883Z,47.56
2024-04-19T02:24:38.494Z,47.62
2024-04-19T02:27:07.601Z,47.82
2024-04-19T02:29:52.804Z,47.48
2024-04-19T02:32:19.341Z,49.11
2024-04-19T02:34:48.075Z,49.51
2024-04-19T02:37:15.118Z,52.47
2024-04-19T02:39:41.861Z,54.78
2024-04-19T02:42:08.449Z,54.61
2024-04-19T02:44:34.936Z,54.18
2024-04-19T02:47:01.520Z,55.70
2024-04-19T02:49:28.046Z,56.03
2024-04-19T02:51:54.601Z,56.28
2024-04-19T02:54:21.100Z,56.13
2024-04-19T02:56:47.622Z,54.98
2024-04-19T02:59:14.121Z,55.91
2024-04-19T03:01:40.690Z,55.22
2024-04-19T03:04:07.414Z,55.37
2024-04-19T03:06:34.109Z,55.41
2024-04-19T03:09:03.371Z,54.22
2024-04-19T03:11:29.906Z,53.25
2024-04-19T03:13:58.899Z,53.67
2024-04-19T03:16:25.579Z,53.16
2024-04-19T03:18:52.094Z,54.18
2024-04-19T03:21:18.680Z,54.35
2024-04-19T03:23:45.179Z,53.57
2024-04-19T03:26:11.715Z,52.63
2024-04-19T03:28:38.189Z,52.93
2024-04-19T03:31:09.330Z,52.64
2024-04-19T03:33:36.012Z,53.92
2024-04-19T03:36:09.382Z,54.44
2024-04-19T03:38:36.056Z,53.71
2024-04-19T03:41:02.635Z,53.31
2024-04-19T03:43:41.755Z,53.72
2024-04-19T03:46:08.844Z,52.54
2024-04-19T03:48:35.436Z,52.04
2024-04-19T03:51:02.030Z,52.00
2024-04-19T03:53:28.514Z,52.10
2024-04-19T03:55:55.038Z,53.53
2024-04-19T03:58:21.541Z,53.41
2024-04-19T04:00:48.428Z,54.58
2024-04-19T04:03:15.136Z,54.40
2024-04-19T04:05:41.637Z,54.47
2024-04-19T04:08:08.236Z,54.29
2024-04-19T04:10:35.992Z,54.57
2024-04-19T04:13:02.611Z,55.18
2024-04-19T04:15:29.180Z,55.04
2024-04-19T04:17:55.773Z,54.55
2024-04-19T04:20:22.351Z,55.08
2024-04-19T04:22:48.856Z,54.71
2024-04-19T04:25:15.470Z,55.31
2024-04-19T04:27:42.166Z,56.74
2024-04-19T04:30:09.417Z,55.80
2024-04-19T04:32:35.981Z,54.58
2024-04-19T04:35:02.506Z,55.82
2024-04-19T04:37:30.229Z,57.16
2024-04-19T04:39:56.861Z,57.98
2024-04-19T04:42:23.460Z,56.21
2024-04-19T04:44:50.041Z,57.53
2024-04-19T04:47:16.696Z,57.57
2024-04-19T04:49:43.396Z,59.57
2024-04-19T04:52:09.950Z,59.19
2024-04-19T04:54:36.488Z,57.76
2024-04-19T04:57:08.505Z,58.31
2024-04-19T04:59:35.944Z,57.83
2024-04-19T05:02:03.082Z,59.31
2024-04-19T05:04:29.969Z,59.82
2024-04-19T05:06:56.540Z,61.59
2024-04-19T05:09:23.105Z,60.05
2024-04-19T05:11:49.620Z,60.06
2024-04-19T05:14:16.087Z,60.90
2024-04-19T05:16:42.659Z,59.79
2024-04-19T05:19:09.169Z,60.63
2024-04-19T05:21:35.740Z,61.35
2024-04-19T05:24:02.254Z,61.35
2024-04-19T05:26:28.756Z,62.80
2024-04-19T05:28:55.214Z,60.50
2024-04-19T05:31:21.703Z,59.86
2024-04-19T05:33:50.787Z,61.34
2024-04-19T05:36:17.301Z,60.37
2024-04-19T05:38:43.841Z,61.37
2024-04-19T05:41:10.362Z,59.82
2024-04-19T05:43:36.907Z,60.61
2024-04-19T05:46:03.652Z,59.92
2024-04-19T05:48:30.533Z,60.04
2024-04-19T05:50:57.048Z,62.61
2024-04-19T05:53:23.592Z,61.01
2024-04-19T05:55:50.091Z,59.15
2024-04-19T05:58:16.719Z,59.92
2024-04-19T06:00:43.347Z,60.23
2024-04-19T06:03:09.899Z,61.36
2024-04-19T06:05:36.598Z,62.12
2024-04-19T06:08:03.116Z,60.87
2024-04-19T06:10:30.315Z,60.75
2024-04-19T06:12:56.830Z,61.71
2024-04-19T06:15:23.370Z,60.81
2024-04-19T06:17:50.093Z,60.24
2024-04-19T06:20:16.746Z,61.38
2024-04-19T06:22:43.426Z,62.15
2024-04-19T06:25:10.301Z,61.90
2024-04-19T06:27:36.832Z,60.95
2024-04-19T06:30:03.565Z,60.60
2024-04-19T06:32:30.099Z,61.85
2024-04-19T06:34:57.089Z,61.11
2024-04-19T06:37:23.664Z,62.28
2024-04-19T06:39:58.985Z,63.47
2024-04-19T06:42:32.074Z,62.19
2024-04-19T06:44:58.676Z,60.78
2024-04-19T06:47:25.347Z,59.82
2024-04-19T06:49:51.899Z,61.47
2024-04-19T06:52:18.371Z,62.25
2024-04-19T06:54:44.912Z,61.38
2024-04-19T06:57:11.770Z,61.66
2024-04-19T06:59:41.080Z,62.50
2024-04-19T07:02:07.693Z,62.31
2024-04-19T07:04:34.302Z,62.70
2024-04-19T07:07:01.011Z,63.09
2024-04-19T07:09:27.630Z,62.86
2024-04-19T07:11:54.218Z,61.69
2024-04-19T07:14:21.772Z,62.86
2024-04-19T07:16:48.313Z,62.15
2024-04-19T07:19:14.875Z,62.70
2024-04-19T07:21:41.746Z,62.10
2024-04-19T07:24:08.553Z,61.85
2024-04-19T07:26:38.971Z,62.95
2024-04-19T07:29:06.471Z,60.88
2024-04-19T07:31:33.430Z,60.88
2024-04-19T07:33:59.932Z,60.78
2024-04-19T07:36:26.500Z,61.09
2024-04-19T07:38:53.650Z,60.83
2024-04-19T07:41:20.162Z,61.16
2024-04-19T07:43:52.872Z,61.27
2024-04-19T07:46:22.658Z,61.26
2024-04-19T07:48:49.464Z,60.77
2024-04-19T07:51:19.149Z,59.56
2024-04-19T07:53:45.710Z,60.55
2024-04-19T07:56:12.219Z,59.83
2024-04-19T07:58:38.723Z,59.40
2024-04-19T08:01:05.666Z,60.78
2024-04-19T08:03:32.486Z,60.86
2024-04-19T08:05:59.026Z,61.30
2024-04-19T08:08:25.593Z,61.22
2024-04-19T08:10:52.092Z,61.37
2024-04-19T08:13:18.661Z,60.60
2024-04-19T08:15:45.609Z,60.28
2024-04-19T08:18:12.234Z,60.33
2024-04-19T08:20:38.766Z,60.09
2024-04-19T08:23:05.340Z,58.66
2024-04-19T08:25:31.949Z,60.97
2024-04-19T08:27:58.505Z,61.58
2024-04-19T08:30:25.541Z,60.98
2024-04-19T08:32:52.191Z,61.92
2024-04-19T08:35:18.690Z,60.60
2024-04-19T08:37:45.190Z,62.33
2024-04-19T08:40:13.834Z,61.57
2024-04-19T08:42:40.638Z,62.14
2024-04-19T08:45:09.238Z,61.42
2024-04-19T08:47:36.987Z,60.13
2024-04-19T08:50:04.412Z,62.08
2024-04-19T08:52:50.561Z,59.88
2024-04-19T08:55:20.510Z,60.61
2024-04-19T08:57:47.497Z,61.02
2024-04-19T09:00:16.140Z,61.81
2024-04-19T09:02:44.452Z,61.11
2024-04-19T09:05:11.112Z,62.48
2024-04-19T09:07:38.080Z,62.08
2024-04-19T09:10:06.341Z,63.11
2024-04-19T09:12:34.721Z,61.82
2024-04-19T09:15:02.036Z,62.99
2024-04-19T09:17:29.460Z,61.82
2024-04-19T09:19:58.110Z,60.58
2024-04-19T09:22:24.852Z,64.64
2024-04-19T09:24:54.602Z,63.08
2024-04-19T09:27:25.248Z,63.34
2024-04-19T09:29:52.488Z,62.88
2024-04-19T09:32:22.852Z,63.90
2024-04-19T09:34:52.411Z,64.82
2024-04-19T09:37:18.946Z,62.03
2024-04-19T09:39:45.657Z,63.25
2024-04-19T09:42:12.343Z,65.29
2024-04-19T09:44:41.869Z,68.86
2024-04-19T09:47:11.241Z,66.11
2024-04-19T09:49:44.198Z,67.45
2024-04-19T09:52:20.158Z,65.74
2024-04-19T09:54:47.941Z,66.40
2024-04-19T09:57:18.210Z,66.54
2024-04-19T09:59:45.861Z,66.63
2024-04-19T10:02:20.775Z,65.40
2024-04-19T10:04:55.736Z,66.11
2024-04-19T10:07:22.716Z,66.19
2024-04-19T10:09:49.783Z,64.57
2024-04-19T10:12:19.538Z,65.66
2024-04-19T10:14:46.423Z,65.25
2024-04-19T10:17:13.169Z,65.97
2024-04-19T10:19:49.669Z,66.90
2024-04-19T10:22:22.470Z,68.29
2024-04-19T10:25:09.287Z,65.97
2024-04-19T10:27:35.988Z,63.96
2024-04-19T10:30:09.605Z,62.87
2024-04-19T10:32:40.330Z,63.17
2024-04-19T10:35:12.147Z,62.38
2024-04-19T10:37:38.653Z,62.01
2024-04-19T10:40:08.875Z,62.65
2024-04-19T10:42:35.483Z,61.95
2024-04-19T10:45:02.617Z,61.48
2024-04-19T10:47:29.161Z,62.98
2024-04-19T10:49:55.811Z,61.67
2024-04-19T10:52:23.915Z,61.35
2024-04-19T10:54:50.564Z,63.35
2024-04-19T10:57:17.175Z,62.44
2024-04-19T10:59:44.533Z,60.99
2024-04-19T11:02:11.674Z,61.43
2024-04-19T11:04:38.564Z,60.77
2024-04-19T11:07:05.228Z,61.85
2024-04-19T11:09:33.435Z,62.99
2024-04-19T11:12:00.397Z,62.32
2024-04-19T11:14:29.349Z,63.44
2024-04-19T11:16:55.883Z,63.92
2024-04-19T11:19:23.224Z,63.29
2024-04-19T11:21:50.504Z,63.29
2024-04-19T11:24:20.050Z,62.80
2024-04-19T11:26:47.767Z,62.80
2024-04-19T11:29:14.609Z,61.93
2024-04-19T11:31:41.332Z,62.75
2024-04-19T11:34:07.988Z,61.12
2024-04-19T11:36:36.047Z,63.50
2024-04-19T11:39:02.775Z,63.55
2024-04-19T11:41:29.376Z,64.15
2024-04-19T11:44:00.527Z,65.08
2024-04-19T11:46:29.713Z,64.96
2024-04-19T11:49:00.066Z,64.61
2024-04-19T11:51:27.097Z,64.97
2024-04-19T11:53:53.699Z,65.26
2024-04-19T11:56:20.179Z,65.13
2024-04-19T11:58:53.331Z,65.10
2024-04-19T12:01:20.252Z,66.67
2024-04-19T12:03:46.837Z,67.56
2024-04-19T12:06:13.455Z,65.02
2024-04-19T12:08:40.642Z,65.76
2024-04-19T12:11:07.314Z,63.44
2024-04-19T12:14:23.223Z,64.34
2024-04-19T12:16:38.163Z,65.61
2024-04-19T12:19:07.373Z,64.08
2024-04-19T12:21:34.600Z,64.45
2024-04-19T12:24:03.938Z,66.03
2024-04-19T12:26:32.562Z,67.12
2024-04-19T12:28:59.393Z,67.04
2024-04-19T12:31:26.078Z,68.53
2024-04-19T12:33:52.839Z,68.64
2024-04-19T12:36:19.556Z,65.39
2024-04-19T12:38:46.096Z,65.66
2024-04-19T12:41:12.633Z,66.23
2024-04-19T12:43:39.549Z,65.68
2024-04-19T12:46:06.140Z,67.04
2024-04-19T12:48:32.834Z,66.94
2024-04-19T12:50:59.422Z,67.97
2024-04-19T12:53:26.216Z,68.59
2024-04-19T12:55:52.981Z,69.06
2024-04-19T12:58:19.811Z,66.42
2024-04-19T13:00:49.393Z,66.47
2024-04-19T13:03:15.968Z,67.55
2024-04-19T13:05:42.702Z,67.10
2024-04-19T13:08:09.328Z,67.62
2024-04-19T13:10:39.821Z,69.47
2024-04-19T13:13:09.340Z,67.48
2024-04-19T13:15:35.903Z,68.91
2024-04-19T13:18:03.337Z,68.98
2024-04-19T13:20:30.916Z,69.24
2024-04-19T13:22:57.424Z,69.48
2024-04-19T13:25:23.942Z,69.12
2024-04-19T13:27:50.540Z,68.38
2024-04-19T13:30:17.152Z,68.22
2024-04-19T13:32:43.675Z,64.70
2024-04-19T13:35:10.197Z,63.43
2024-04-19T13:37:36.736Z,62.50
2024-04-19T13:40:03.339Z,62.54
2024-04-19T13:42:29.932Z,59.54
2024-04-19T13:44:56.496Z,60.74
2024-04-19T13:47:23.146Z,61.37
2024-04-19T13:49:49.700Z,59.39
2024-04-19T13:52:16.201Z,59.12
2024-04-19T13:54:42.954Z,62.24
2024-04-19T13:57:09.972Z,63.18
2024-04-19T13:59:36.570Z,62.86
2024-04-19T14:02:03.117Z,64.01
2024-04-19T14:04:29.759Z,63.59
2024-04-19T14:06:57.033Z,63.72
2024-04-19T14:09:24.023Z,63.73
2024-04-19T14:11:50.538Z,64.78
2024-04-19T14:14:17.149Z,65.60
2024-04-19T14:16:43.657Z,64.91
2024-04-19T14:19:10.675Z,64.68
2024-04-19T14:21:37.174Z,65.23
2024-04-19T14:24:03.731Z,63.59
2024-04-19T14:26:30.442Z,63.36
2024-04-19T14:28:56.923Z,63.01
2024-04-19T14:31:23.767Z,62.31
2024-04-19T14:33:50.358Z,61.27
2024-04-19T14:36:17.034Z,63.35
2024-04-19T14:38:43.514Z,61.45
2024-04-19T14:41:10.084Z,61.10
2024-04-19T14:43:41.225Z,61.90
2024-04-19T14:46:09.484Z,62.44
2024-04-19T14:48:36.374Z,62.83
2024-04-19T14:51:03.503Z,61.39
2024-04-19T14:53:30.016Z,61.34
2024-04-19T14:55:58.358Z,59.68
2024-04-19T14:58:24.884Z,61.10
2024-04-19T15:00:51.836Z,65.76
2024-04-19T15:03:18.515Z,64.90
2024-04-19T15:05:45.091Z,66.37
2024-04-19T15:08:11.630Z,66.86
2024-04-19T15:10:40.045Z,67.77
2024-04-19T15:13:06.884Z,68.75
2024-04-19T15:15:33.694Z,69.50
2024-04-19T15:18:00.530Z,67.20
2024-04-19T15:20:27.177Z,67.97
2024-04-19T15:22:58.370Z,65.99
2024-04-19T15:25:25.641Z,66.87
2024-04-19T15:27:52.177Z,64.56
2024-04-19T15:30:18.745Z,64.95
2024-04-19T15:32:47.512Z,64.99
2024-04-19T15:35:14.292Z,63.83
2024-04-19T15:37:41.152Z,61.86
2024-04-19T15:40:08.629Z,62.31
2024-04-19T15:42:35.431Z,62.65
2024-04-19T15:45:01.981Z,63.06
2024-04-19T15:47:28.567Z,62.56
2024-04-19T15:49:55.155Z,62.77
2024-04-19T15:52:24.507Z,61.88
2024-04-19T15:54:52.737Z,61.19
2024-04-19T15:57:19.791Z,59.79
2024-04-19T15:59:46.301Z,59.25
2024-04-19T16:02:13.990Z,56.05
2024-04-19T16:04:40.744Z,56.21
2024-04-19T16:07:07.448Z,56.47
2024-04-19T16:09:33.983Z,56.17
2024-04-19T16:12:01.128Z,56.57
2024-04-19T16:14:27.744Z,56.13
2024-04-19T16:16:54.237Z,56.91
2024-04-19T16:19:20.904Z,55.99
2024-04-19T16:21:47.470Z,57.33
2024-04-19T16:24:14.220Z,58.36
2024-04-19T16:26:40.784Z,57.55
2024-04-19T16:29:07.318Z,57.74
2024-04-19T16:31:33.837Z,57.35
2024-04-19T16:34:00.488Z,57.25
2024-04-19T16:36:27.169Z,56.90
2024-04-19T16:38:55.698Z,56.41
2024-04-19T16:41:22.617Z,56.95
2024-04-19T16:43:49.140Z,58.18
2024-04-19T16:46:15.706Z,56.58
2024-04-19T16:48:42.283Z,56.37
2024-04-19T16:51:08.869Z,55.75
2024-04-19T16:53:35.400Z,55.01
2024-04-19T16:56:04.395Z,55.31
2024-04-19T16:58:31.299Z,55.72
2024-04-19T17:00:57.974Z,54.98
2024-04-19T17:03:24.631Z,54.43
2024-04-19T17:05:51.186Z,54.39
2024-04-19T17:08:17.714Z,55.32
2024-04-19T17:10:44.320Z,54.99
2024-04-19T17:13:10.891Z,56.67
2024-04-19T17:15:37.512Z,53.88
2024-04-19T17:18:04.871Z,54.36
2024-04-19T17:20:31.693Z,53.81
2024-04-19T17:22:58.261Z,52.08
2024-04-19T17:25:24.914Z,52.49
2024-04-19T17:27:51.586Z,51.64
2024-04-19T17:30:22.913Z,52.35
2024-04-19T17:32:49.617Z,51.93
2024-04-19T17:35:16.302Z,52.22
2024-04-19T17:37:44.419Z,52.48
2024-04-19T17:40:11.213Z,53.32
2024-04-19T17:42:38.087Z,52.88
2024-04-19T17:45:04.919Z,52.93
2024-04-19T17:47:32.126Z,53.26
2024-04-19T17:49:58.878Z,52.41
2024-04-19T17:52:25.384Z,53.02
2024-04-19T17:54:51.962Z,54.20
2024-04-19T17:57:18.524Z,55.44
2024-04-19T17:59:45.010Z,56.73
2024-04-19T18:02:12.556Z,56.54
2024-04-19T18:04:40.768Z,57.83
2024-04-19T18:07:07.500Z,61.47
2024-04-19T18:09:34.140Z,61.95
2024-04-19T18:12:00.631Z,61.78
2024-04-19T18:14:27.184Z,61.36
2024-04-19T18:16:56.436Z,61.64
2024-04-19T18:19:26.661Z,60.63
2024-04-19T18:21:53.686Z,62.64
2024-04-19T18:24:24.437Z,61.38
2024-04-19T18:26:50.983Z,61.40
2024-04-19T18:29:17.520Z,61.71
2024-04-19T18:31:44.104Z,61.14
2024-04-19T18:34:16.851Z,61.70
2024-04-19T18:36:45.887Z,61.31
2024-04-19T18:39:13.062Z,59.96
2024-04-19T18:41:40.171Z,61.95
2024-04-19T18:44:06.840Z,61.47
2024-04-19T18:46:33.433Z,61.34
2024-04-19T18:49:00.201Z,62.44
2024-04-19T18:51:27.283Z,61.83
2024-04-19T18:53:57.682Z,62.72
2024-04-19T18:56:24.176Z,62.58
2024-04-19T18:58:50.693Z,62.15
2024-04-19T19:01:19.650Z,61.88
2024-04-19T19:03:47.847Z,61.27
2024-04-19T19:06:15.411Z,59.63
2024-04-19T19:08:42.156Z,59.56
2024-04-19T19:11:13.707Z,59.81
2024-04-19T19:13:42.907Z,59.24
2024-04-19T19:16:10.029Z,60.90
2024-04-19T19:18:36.647Z,60.31
2024-04-19T19:21:03.387Z,63.33
2024-04-19T19:23:31.325Z,64.58
2024-04-19T19:25:59.716Z,65.85
2024-04-19T19:28:28.037Z,66.53
2024-04-19T19:30:57.606Z,66.44
2024-04-19T19:33:24.643Z,66.46
2024-04-19T19:35:57.783Z,66.22
2024-04-19T19:38:24.594Z,67.32
2024-04-19T19:40:51.137Z,67.38
2024-04-19T19:43:20.929Z,67.26
2024-04-19T19:45:58.621Z,67.76
2024-04-19T19:48:28.309Z,66.83
2024-04-19T19:50:59.885Z,66.46
2024-04-19T19:53:27.477Z,66.75
2024-04-19T19:55:54.381Z,66.04
2024-04-19T19:58:21.232Z,66.13
2024-04-19T20:01:09.498Z,66.06
2024-04-19T20:03:55.029Z,66.67
2024-04-19T20:06:22.490Z,66.05
2024-04-19T20:08:49.037Z,67.66
2024-04-19T20:11:15.699Z,67.72
2024-04-19T20:13:42.286Z,67.81
2024-04-19T20:16:09.312Z,65.56
2024-04-19T20:18:39.200Z,67.17
2024-04-19T20:21:05.783Z,68.57
2024-04-19T20:23:32.474Z,68.67
2024-04-19T20:25:59.162Z,69.18
2024-04-19T20:28:25.645Z,69.13
2024-04-19T20:30:52.221Z,68.22
2024-04-19T20:33:18.835Z,69.37
2024-04-19T20:35:45.692Z,68.99
2024-04-19T20:38:12.302Z,68.07
2024-04-19T20:40:39.062Z,68.17
2024-04-19T20:43:15.156Z,67.59
2024-04-19T20:45:46.925Z,68.68
2024-04-19T20:48:13.653Z,68.08
2024-04-19T20:50:40.297Z,68.07
2024-04-19T20:53:06.827Z,68.30
2024-04-19T20:55:37.812Z,67.32
2024-04-19T20:58:04.615Z,68.49
2024-04-19T21:00:33.049Z,67.30
2024-04-19T21:03:01.281Z,66.36
2024-04-19T21:05:27.818Z,67.51
2024-04-19T21:07:54.556Z,68.47
2024-04-19T21:10:21.793Z,68.08
2024-04-19T21:12:48.351Z,67.24
2024-04-19T21:15:17.116Z,66.67
2024-04-19T21:17:44.542Z,67.84
2024-04-19T21:20:11.331Z,67.38
2024-04-19T21:22:37.825Z,68.06
2024-04-19T21:25:05.614Z,69.23
2024-04-19T21:27:33.193Z,68.66
2024-04-19T21:30:00.144Z,70.60
2024-04-19T21:32:26.803Z,70.26
2024-04-19T21:34:53.358Z,68.97
2024-04-19T21:37:20.541Z,68.48
2024-04-19T21:39:47.153Z,68.09
2024-04-19T21:42:15.894Z,69.16
2024-04-19T21:44:42.648Z,68.69
2024-04-19T21:47:09.413Z,69.46
2024-04-19T21:49:35.974Z,70.83
2024-04-19T21:52:04.129Z,70.71
2024-04-19T21:54:30.843Z,67.82
2024-04-19T21:56:57.357Z,67.96
2024-04-19T21:59:23.859Z,68.33
2024-04-19T22:01:50.387Z,70.01
2024-04-19T22:04:16.927Z,69.70
2024-04-19T22:06:43.469Z,69.06
2024-04-19T22:09:10.097Z,67.91
2024-04-19T22:11:36.576Z,68.70
2024-04-19T22:14:03.073Z,68.85
2024-04-19T22:16:29.563Z,69.67
2024-04-19T22:18:56.184Z,68.22
2024-04-19T22:21:22.715Z,67.16
2024-04-19T22:23:49.538Z,68.64
2024-04-19T22:26:16.102Z,67.34
2024-04-19T22:28:42.764Z,69.56
2024-04-19T22:31:11.126Z,68.15
2024-04-19T22:33:37.716Z,68.28
2024-04-19T22:36:10.221Z,65.46
2024-04-19T22:38:37.521Z,67.11
2024-04-19T22:41:04.452Z,65.72
2024-04-19T22:43:33.586Z,66.84
2024-04-19T22:46:05.592Z,67.01
2024-04-19T22:48:33.292Z,65.93
2024-04-19T22:50:59.908Z,66.26
2024-04-19T22:53:26.418Z,65.00
2024-04-19T22:55:55.158Z,65.07
2024-04-19T22:58:21.859Z,65.42
2024-04-19T23:00:48.527Z,64.62
2024-04-19T23:03:15.444Z,66.64
2024-04-19T23:05:42.021Z,67.62
2024-04-19T23:08:10.781Z,67.16
2024-04-19T23:10:37.687Z,66.58
2024-04-19T23:13:06.209Z,65.95
2024-04-19T23:15:34.341Z,66.06
2024-04-19T23:18:01.071Z,66.71
2024-04-19T23:20:27.667Z,64.80
2024-04-19T23:22:54.865Z,67.48
2024-04-19T23:25:21.343Z,64.51
2024-04-19T23:27:48.983Z,66.43
2024-04-19T23:30:15.555Z,64.99
2024-04-19T23:32:42.166Z,64.46
2024-04-19T23:35:08.699Z,65.06
2024-04-19T23:37:37.336Z,65.60
2024-04-19T23:40:04.429Z,65.01
2024-04-19T23:42:31.061Z,65.15
2024-04-19T23:44:57.609Z,64.94
2024-04-19T23:47:26.097Z,64.21
2024-04-19T23:49:52.690Z,65.64
2024-04-19T23:52:19.227Z,66.19
2024-04-19T23:54:46.591Z,63.30
2024-04-19T23:57:13.247Z,63.44
2024-04-19T23:59:39.774Z,63.72
